Terminal Aerodrome Forecast
Issued by NWS Cleveland, OH

Home | Current Version | Previous Version | Text Only | Print | Product List | Glossary On
Versions: 1 2 3 4 5 6 7 8 9 10 11 12 13 14 15
000
FTUS41 KCLE 130527
TAFMFD
TAF
KMFD 130527Z 1306/1406 30012G20KT 6SM -SHSN BKN035
      TEMPO 1306/1307 2SM -SHSN BLSN BKN025
     FM130800 31012G22KT P6SM BKN035
     FM132000 30010G18KT 4SM -SHSN BKN025
     FM140000 28006KT P6SM BKN035=

USA.gov is the U.S. government's official web portal to all federal, state and local government web resources and services.